createdAt,value
2023-01-08T00:00:46.293Z,-7.70
2023-01-08T00:01:50.303Z,-7.70
2023-01-08T00:02:52.414Z,-7.70
2023-01-08T00:03:54.565Z,-7.70
2023-01-08T00:04:56.530Z,-7.60
2023-01-08T00:06:02.302Z,-7.60
2023-01-08T00:07:04.207Z,-7.60
2023-01-08T00:08:08.554Z,-7.60
2023-01-08T00:09:11.783Z,-7.60
2023-01-08T00:10:13.636Z,-7.60
2023-01-08T00:11:16.163Z,-7.60
2023-01-08T00:12:17.990Z,-7.60
2023-01-08T00:13:19.795Z,-7.60
2023-01-08T00:14:21.687Z,-7.60
2023-01-08T00:15:23.635Z,-7.60
2023-01-08T00:16:25.564Z,-7.60
2023-01-08T00:17:27.383Z,-7.60
2023-01-08T00:18:29.594Z,-7.60
2023-01-08T00:19:31.652Z,-7.60
2023-01-08T00:20:33.872Z,-7.60
2023-01-08T00:21:35.645Z,-7.60
2023-01-08T00:22:40.246Z,-7.60
2023-01-08T00:23:42.142Z,-7.60
2023-01-08T00:24:43.904Z,-7.60
2023-01-08T00:25:46.542Z,-7.60
2023-01-08T00:26:48.463Z,-7.60
2023-01-08T00:27:50.381Z,-7.60
2023-01-08T00:28:52.361Z,-7.60
2023-01-08T00:29:54.121Z,-7.50
2023-01-08T00:30:56.086Z,-7.50
2023-01-08T00:31:57.953Z,-7.50
2023-01-08T00:32:59.968Z,-7.60
2023-01-08T00:34:01.623Z,-7.50
2023-01-08T00:35:03.747Z,-7.50
2023-01-08T00:36:10.117Z,-7.50
2023-01-08T00:37:12.011Z,-7.50
2023-01-08T00:38:13.827Z,-7.50
2023-01-08T00:39:15.588Z,-7.50
2023-01-08T00:40:17.527Z,-7.50
2023-01-08T00:41:19.382Z,-7.60
2023-01-08T00:42:21.265Z,-7.50
2023-01-08T00:43:23.164Z,-7.50
2023-01-08T00:44:24.926Z,-7.50
2023-01-08T00:45:26.714Z,-7.50
2023-01-08T00:46:28.526Z,-7.50
2023-01-08T00:47:30.242Z,-7.50
2023-01-08T00:48:33.669Z,-7.40
2023-01-08T00:49:35.525Z,-7.40
2023-01-08T00:50:37.377Z,-7.40
2023-01-08T00:51:39.185Z,-7.40
2023-01-08T00:52:41.075Z,-7.50
2023-01-08T00:53:42.896Z,-7.40
2023-01-08T00:54:44.714Z,-7.40
2023-01-08T00:55:46.545Z,-7.40
2023-01-08T00:56:48.182Z,-7.40
2023-01-08T00:57:49.854Z,-7.40
2023-01-08T00:58:51.642Z,-7.40
2023-01-08T00:59:53.443Z,-7.40
2023-01-08T01:00:55.548Z,-7.30
2023-01-08T01:01:57.518Z,-7.30
2023-01-08T01:02:59.566Z,-7.30
2023-01-08T01:04:01.360Z,-7.30
2023-01-08T01:05:03.673Z,-7.30
2023-01-08T01:06:05.675Z,-7.30
2023-01-08T01:07:07.326Z,-7.30
2023-01-08T01:08:09.127Z,-7.30
2023-01-08T01:09:11.840Z,-7.30
2023-01-08T01:10:14.879Z,-7.30
2023-01-08T01:11:26.495Z,-7.30
2023-01-08T01:12:28.435Z,-7.30
2023-01-08T01:13:30.235Z,-7.30
2023-01-08T01:14:32.329Z,-7.30
2023-01-08T01:15:34.005Z,-7.30
2023-01-08T01:16:36.606Z,-7.30
2023-01-08T01:17:39.529Z,-7.30
2023-01-08T01:18:41.412Z,-7.30
2023-01-08T01:19:43.243Z,-7.30
2023-01-08T01:20:44.902Z,-7.20
2023-01-08T01:21:46.689Z,-7.30
2023-01-08T01:22:48.562Z,-7.20
2023-01-08T01:23:51.048Z,-7.20
2023-01-08T01:24:53.060Z,-7.20
2023-01-08T01:25:54.884Z,-7.20
2023-01-08T01:26:57.706Z,-7.20
2023-01-08T01:27:59.337Z,-7.20
2023-01-08T01:29:01.302Z,-7.20
2023-01-08T01:30:03.798Z,-7.20
2023-01-08T01:31:07.081Z,-7.20
2023-01-08T01:32:09.219Z,-7.20
2023-01-08T01:33:11.141Z,-7.20
2023-01-08T01:34:13.037Z,-7.20
2023-01-08T01:35:14.866Z,-7.20
2023-01-08T01:36:18.248Z,-7.20
2023-01-08T01:37:20.172Z,-7.20
2023-01-08T01:38:21.894Z,-7.20
2023-01-08T01:39:23.721Z,-7.10
2023-01-08T01:40:25.648Z,-7.10
2023-01-08T01:41:31.723Z,-7.10
2023-01-08T01:42:39.783Z,-7.10
2023-01-08T01:43:43.563Z,-7.10
2023-01-08T01:44:46.230Z,-7.10
2023-01-08T01:45:48.083Z,-7.10
2023-01-08T01:46:50.374Z,-7.10
2023-01-08T01:48:18.179Z,-7.10
2023-01-08T01:49:23.172Z,-7.10
2023-01-08T01:50:47.370Z,-7.00
2023-01-08T01:51:53.486Z,-7.10
2023-01-08T01:53:13.221Z,-7.10
2023-01-08T01:54:16.777Z,-7.10
2023-01-08T01:55:19.145Z,-7.10
2023-01-08T01:56:21.405Z,-7.10
2023-01-08T01:57:25.064Z,-7.10
2023-01-08T01:58:29.784Z,-7.10
2023-01-08T01:59:31.663Z,-7.10
2023-01-08T02:00:35.141Z,-7.10
2023-01-08T02:01:37.958Z,-7.10
2023-01-08T02:02:39.944Z,-7.10
2023-01-08T02:03:42.004Z,-7.10
2023-01-08T02:04:43.990Z,-7.10
2023-01-08T02:05:59.612Z,-7.00
2023-01-08T02:07:22.800Z,-7.00
2023-01-08T02:08:47.066Z,-7.00
2023-01-08T02:10:03.677Z,-7.00
2023-01-08T02:11:22.442Z,-7.00
2023-01-08T02:12:35.922Z,-7.10
2023-01-08T02:13:43.128Z,-7.00
2023-01-08T02:15:03.760Z,-7.10
2023-01-08T02:16:16.588Z,-7.00
2023-01-08T02:17:26.700Z,-7.00
2023-01-08T02:18:34.858Z,-7.00
2023-01-08T02:19:54.090Z,-7.00
2023-01-08T02:21:09.128Z,-7.00
2023-01-08T02:22:29.257Z,-7.00
2023-01-08T02:23:58.328Z,-7.00
2023-01-08T02:25:29.546Z,-7.00
2023-01-08T02:26:32.617Z,-7.00
2023-01-08T02:27:36.225Z,-7.00
2023-01-08T02:28:53.340Z,-7.00
2023-01-08T02:29:57.022Z,-7.00
2023-01-08T02:30:59.598Z,-7.00
2023-01-08T02:33:18.858Z,-7.00
2023-01-08T02:34:20.635Z,-7.00
2023-01-08T02:35:22.579Z,-7.00
2023-01-08T02:36:26.791Z,-7.00
2023-01-08T02:37:28.808Z,-7.00
2023-01-08T02:38:31.905Z,-7.00
2023-01-08T02:40:16.467Z,-7.00
2023-01-08T02:41:23.493Z,-7.00
2023-01-08T02:42:46.217Z,-7.00
2023-01-08T02:43:52.011Z,-6.90
2023-01-08T02:45:06.593Z,-6.90
2023-01-08T02:46:14.685Z,-6.90
2023-01-08T02:47:49.872Z,-6.90
2023-01-08T02:48:58.456Z,-6.90
2023-01-08T02:50:26.079Z,-7.00
2023-01-08T02:51:51.742Z,-6.90
2023-01-08T02:53:10.789Z,-6.90
2023-01-08T02:54:17.763Z,-6.90
2023-01-08T02:55:21.038Z,-6.90
2023-01-08T02:56:26.872Z,-6.90
2023-01-08T02:57:31.994Z,-6.90
2023-01-08T02:58:37.289Z,-6.90
2023-01-08T02:59:42.237Z,-6.80
2023-01-08T03:00:46.852Z,-6.90
2023-01-08T03:01:49.067Z,-6.90
2023-01-08T03:02:55.261Z,-6.80
2023-01-08T03:04:04.034Z,-6.80
2023-01-08T03:05:14.513Z,-6.80
2023-01-08T03:06:20.055Z,-6.80
2023-01-08T03:07:22.200Z,-6.90
2023-01-08T03:08:24.370Z,-6.90
2023-01-08T03:09:26.722Z,-6.80
2023-01-08T03:10:30.794Z,-6.80
2023-01-08T03:11:40.415Z,-6.80
2023-01-08T03:13:00.223Z,-6.80
2023-01-08T03:14:15.722Z,-6.80
2023-01-08T03:15:24.856Z,-6.80
2023-01-08T03:16:34.179Z,-6.80
2023-01-08T03:17:42.924Z,-6.80
2023-01-08T03:18:51.338Z,-6.80
2023-01-08T03:20:01.489Z,-6.80
2023-01-08T03:21:05.859Z,-6.80
2023-01-08T03:22:12.441Z,-6.80
2023-01-08T03:23:16.317Z,-6.80
2023-01-08T03:24:26.065Z,-6.80
2023-01-08T03:25:30.260Z,-6.80
2023-01-08T03:26:33.462Z,-6.70
2023-01-08T03:27:40.196Z,-6.70
2023-01-08T03:28:47.463Z,-6.70
2023-01-08T03:29:53.120Z,-6.70
2023-01-08T03:30:55.156Z,-6.70
2023-01-08T03:32:01.592Z,-6.70
2023-01-08T03:33:05.781Z,-6.70
2023-01-08T03:34:08.644Z,-6.70
2023-01-08T03:35:14.115Z,-6.70
2023-01-08T03:36:20.056Z,-6.70
2023-01-08T03:37:30.330Z,-6.70
2023-01-08T03:38:36.801Z,-6.70
2023-01-08T03:39:54.314Z,-6.70
2023-01-08T03:41:08.876Z,-6.70
2023-01-08T03:42:13.292Z,-6.70
2023-01-08T03:43:15.390Z,-6.60
2023-01-08T03:44:17.315Z,-6.70
2023-01-08T03:45:21.853Z,-6.60
2023-01-08T03:46:33.692Z,-6.60
2023-01-08T03:47:38.208Z,-6.60
2023-01-08T03:48:41.673Z,-6.60
2023-01-08T03:49:44.820Z,-6.60
2023-01-08T03:50:47.042Z,-6.60
2023-01-08T03:51:49.205Z,-6.60
2023-01-08T03:52:51.079Z,-6.60
2023-01-08T03:53:58.878Z,-6.60
2023-01-08T03:55:01.345Z,-6.60
2023-01-08T03:56:03.585Z,-6.60
2023-01-08T03:57:05.540Z,-6.60
2023-01-08T03:58:07.879Z,-6.60
2023-01-08T03:59:11.478Z,-6.60
2023-01-08T04:00:14.273Z,-6.60
2023-01-08T04:01:16.216Z,-6.60
2023-01-08T04:02:18.314Z,-6.60
2023-01-08T04:03:20.281Z,-6.60
2023-01-08T04:04:22.122Z,-6.60
2023-01-08T04:05:24.094Z,-6.50
2023-01-08T04:06:25.977Z,-6.60
2023-01-08T04:07:28.023Z,-6.50
2023-01-08T04:08:29.935Z,-6.50
2023-01-08T04:09:31.821Z,-6.50
2023-01-08T04:10:33.947Z,-6.60
2023-01-08T04:11:36.141Z,-6.50
2023-01-08T04:12:38.031Z,-6.50
2023-01-08T04:13:40.177Z,-6.60
2023-01-08T04:14:41.941Z,-6.50
2023-01-08T04:15:52.567Z,-6.50
2023-01-08T04:16:54.317Z,-6.50
2023-01-08T04:17:56.232Z,-6.50
2023-01-08T04:18:58.318Z,-6.50
2023-01-08T04:20:00.083Z,-6.40
2023-01-08T04:21:01.940Z,-6.40
2023-01-08T04:22:03.722Z,-6.40
2023-01-08T04:23:05.419Z,-6.40
2023-01-08T04:24:08.483Z,-6.40
2023-01-08T04:25:10.387Z,-6.40
2023-01-08T04:26:12.252Z,-6.40
2023-01-08T04:27:14.135Z,-6.40
2023-01-08T04:28:15.872Z,-6.40
2023-01-08T04:29:17.756Z,-6.40
2023-01-08T04:30:19.695Z,-6.40
2023-01-08T04:31:21.922Z,-6.40
2023-01-08T04:32:23.805Z,-6.40
2023-01-08T04:33:25.668Z,-6.40
2023-01-08T04:34:27.375Z,-6.40
2023-01-08T04:35:29.310Z,-6.40
2023-01-08T04:36:31.437Z,-6.40
2023-01-08T04:37:33.284Z,-6.40
2023-01-08T04:38:35.165Z,-6.40
2023-01-08T04:39:37.050Z,-6.40
2023-01-08T04:40:38.930Z,-6.40
2023-01-08T04:41:40.943Z,-6.40
2023-01-08T04:42:42.776Z,-6.40
2023-01-08T04:43:44.813Z,-6.40
2023-01-08T04:44:46.655Z,-6.40
2023-01-08T04:45:48.540Z,-6.40
2023-01-08T04:46:50.387Z,-6.40
2023-01-08T04:47:59.470Z,-6.40
2023-01-08T04:49:01.395Z,-6.40
2023-01-08T04:50:03.474Z,-6.40
2023-01-08T04:51:05.754Z,-6.40
2023-01-08T04:52:07.625Z,-6.40
2023-01-08T04:53:09.507Z,-6.40
2023-01-08T04:54:11.393Z,-6.40
2023-01-08T04:55:13.237Z,-6.40
2023-01-08T04:56:15.219Z,-6.40
2023-01-08T04:57:17.090Z,-6.40
2023-01-08T04:58:19.143Z,-6.40
2023-01-08T04:59:21.021Z,-6.30
2023-01-08T05:00:22.808Z,-6.30
2023-01-08T05:01:27.270Z,-6.40
2023-01-08T05:02:29.756Z,-6.30
2023-01-08T05:03:31.981Z,-6.40
2023-01-08T05:04:33.820Z,-6.40
2023-01-08T05:05:35.617Z,-6.40
2023-01-08T05:06:37.540Z,-6.40
2023-01-08T05:07:39.432Z,-6.40
2023-01-08T05:08:41.289Z,-6.40
2023-01-08T05:09:43.029Z,-6.30
2023-01-08T05:10:44.756Z,-6.40
2023-01-08T05:11:46.525Z,-6.40
2023-01-08T05:12:48.420Z,-6.40
2023-01-08T05:13:51.870Z,-6.40
2023-01-08T05:14:53.623Z,-6.40
2023-01-08T05:15:58.737Z,-6.30
2023-01-08T05:17:00.683Z,-6.30
2023-01-08T05:18:05.642Z,-6.40
2023-01-08T05:19:07.608Z,-6.30
2023-01-08T05:20:09.751Z,-6.30
2023-01-08T05:21:13.391Z,-6.40
2023-01-08T05:22:15.316Z,-6.40
2023-01-08T05:23:17.306Z,-6.40
2023-01-08T05:24:19.202Z,-6.40
2023-01-08T05:25:21.402Z,-6.40
2023-01-08T05:26:23.251Z,-6.30
2023-01-08T05:27:25.402Z,-6.40
2023-01-08T05:28:28.427Z,-6.30
2023-01-08T05:29:30.297Z,-6.30
2023-01-08T05:30:32.493Z,-6.30
2023-01-08T05:31:34.415Z,-6.30
2023-01-08T05:32:36.453Z,-6.30
2023-01-08T05:33:39.116Z,-6.30
2023-01-08T05:34:40.996Z,-6.30
2023-01-08T05:35:42.754Z,-6.30
2023-01-08T05:36:44.666Z,-6.30
2023-01-08T05:37:46.405Z,-6.30
2023-01-08T05:38:48.309Z,-6.30
2023-01-08T05:39:50.148Z,-6.30
2023-01-08T05:40:53.099Z,-6.30
2023-01-08T05:41:54.995Z,-6.30
2023-01-08T05:42:59.734Z,-6.30
2023-01-08T05:44:01.493Z,-6.30
2023-01-08T05:45:05.646Z,-6.30
2023-01-08T05:46:07.718Z,-6.30
2023-01-08T05:47:09.489Z,-6.30
2023-01-08T05:48:11.264Z,-6.30
2023-01-08T05:49:13.048Z,-6.30
2023-01-08T05:50:15.012Z,-6.20
2023-01-08T05:51:17.541Z,-6.30
2023-01-08T05:52:19.430Z,-6.20
2023-01-08T05:53:21.454Z,-6.20
2023-01-08T05:54:23.323Z,-6.20
2023-01-08T05:55:25.398Z,-6.20
2023-01-08T05:56:27.275Z,-6.20
2023-01-08T05:57:29.186Z,-6.20
2023-01-08T05:58:31.481Z,-6.20
2023-01-08T05:59:33.237Z,-6.20
2023-01-08T06:00:35.648Z,-6.10
2023-01-08T06:01:37.768Z,-6.20
2023-01-08T06:02:39.922Z,-6.20
2023-01-08T06:03:42.195Z,-6.10
2023-01-08T06:04:44.291Z,-6.10
2023-01-08T06:05:46.164Z,-6.10
2023-01-08T06:06:48.053Z,-6.10
2023-01-08T06:07:49.847Z,-6.10
2023-01-08T06:08:51.737Z,-6.10
2023-01-08T06:09:53.606Z,-6.10
2023-01-08T06:10:58.657Z,-6.10
2023-01-08T06:12:00.504Z,-6.10
2023-01-08T06:13:02.361Z,-6.10
2023-01-08T06:14:04.186Z,-6.10
2023-01-08T06:15:06.713Z,-6.10
2023-01-08T06:16:08.822Z,-6.00
2023-01-08T06:17:10.795Z,-6.10
2023-01-08T06:18:12.629Z,-6.10
2023-01-08T06:19:14.478Z,-6.10
2023-01-08T06:20:16.439Z,-6.00
2023-01-08T06:21:18.418Z,-6.00
2023-01-08T06:22:20.292Z,-6.00
2023-01-08T06:23:22.201Z,-6.00
2023-01-08T06:24:23.947Z,-6.00
2023-01-08T06:25:25.893Z,-6.00
2023-01-08T06:26:27.835Z,-6.00
2023-01-08T06:27:29.820Z,-6.00
2023-01-08T06:28:32.212Z,-6.00
2023-01-08T06:29:34.025Z,-6.00
2023-01-08T06:30:36.245Z,-5.90
2023-01-08T06:31:38.017Z,-6.00
2023-01-08T06:32:39.945Z,-6.00
2023-01-08T06:33:41.655Z,-5.90
2023-01-08T06:34:43.569Z,-6.00
2023-01-08T06:35:45.495Z,-5.90
2023-01-08T06:36:47.418Z,-6.00
2023-01-08T06:37:49.552Z,-5.90
2023-01-08T06:38:51.537Z,-5.90
2023-01-08T06:39:53.484Z,-5.90
2023-01-08T06:40:55.705Z,-5.90
2023-01-08T06:41:57.570Z,-5.90
2023-01-08T06:43:03.622Z,-5.90
2023-01-08T06:44:05.510Z,-5.90
2023-01-08T06:45:08.149Z,-5.90
2023-01-08T06:46:10.523Z,-5.90
2023-01-08T06:47:12.406Z,-5.90
2023-01-08T06:48:14.240Z,-5.90
2023-01-08T06:49:17.581Z,-5.90
2023-01-08T06:50:19.329Z,-5.80
2023-01-08T06:51:21.197Z,-5.90
2023-01-08T06:52:23.121Z,-5.80
2023-01-08T06:53:25.383Z,-5.80
2023-01-08T06:54:27.344Z,-5.80
2023-01-08T06:55:29.296Z,-5.80
2023-01-08T06:56:31.014Z,-5.80
2023-01-08T06:57:32.948Z,-5.80
2023-01-08T06:58:35.047Z,-5.80
2023-01-08T06:59:36.940Z,-5.80
2023-01-08T07:00:39.779Z,-5.80
2023-01-08T07:01:41.699Z,-5.80
2023-01-08T07:02:43.806Z,-5.80
2023-01-08T07:03:45.895Z,-5.80
2023-01-08T07:04:48.887Z,-5.80
2023-01-08T07:05:51.244Z,-5.80
2023-01-08T07:06:52.984Z,-5.70
2023-01-08T07:07:55.406Z,-5.70
2023-01-08T07:08:57.386Z,-5.70
2023-01-08T07:09:59.131Z,-5.70
2023-01-08T07:11:04.265Z,-5.70
2023-01-08T07:12:06.699Z,-5.70
2023-01-08T07:13:09.282Z,-5.70
2023-01-08T07:14:11.652Z,-5.70
2023-01-08T07:15:13.669Z,-5.70
2023-01-08T07:16:16.363Z,-5.70
2023-01-08T07:17:18.267Z,-5.70
2023-01-08T07:18:20.133Z,-5.70
2023-01-08T07:19:22.039Z,-5.70
2023-01-08T07:20:23.959Z,-5.70
2023-01-08T07:21:26.030Z,-5.70
2023-01-08T07:22:28.358Z,-5.70
2023-01-08T07:23:30.743Z,-5.60
2023-01-08T07:24:32.573Z,-5.70
2023-01-08T07:25:34.408Z,-5.60
2023-01-08T07:26:36.951Z,-5.60
2023-01-08T07:27:38.850Z,-5.60
2023-01-08T07:28:41.829Z,-5.60
2023-01-08T07:29:43.706Z,-5.60
2023-01-08T07:30:45.857Z,-5.60
2023-01-08T07:31:47.713Z,-5.60
2023-01-08T07:32:49.755Z,-5.60
2023-01-08T07:33:51.722Z,-5.60
2023-01-08T07:34:54.817Z,-5.60
2023-01-08T07:35:57.059Z,-5.60
2023-01-08T07:36:58.844Z,-5.60
2023-01-08T07:38:00.693Z,-5.50
2023-01-08T07:39:02.658Z,-5.50
2023-01-08T07:40:05.231Z,-5.50
2023-01-08T07:41:06.995Z,-5.50
2023-01-08T07:42:08.958Z,-5.50
2023-01-08T07:43:12.791Z,-5.50
2023-01-08T07:44:14.699Z,-5.50
2023-01-08T07:45:16.464Z,-5.50
2023-01-08T07:46:18.506Z,-5.50
2023-01-08T07:47:20.652Z,-5.50
2023-01-08T07:48:22.590Z,-5.50
2023-01-08T07:49:24.304Z,-5.50
2023-01-08T07:50:27.566Z,-5.50
2023-01-08T07:51:30.056Z,-5.50
2023-01-08T07:52:32.239Z,-5.50
2023-01-08T07:53:34.902Z,-5.50
2023-01-08T07:54:36.763Z,-5.50
2023-01-08T07:55:39.057Z,-5.50
2023-01-08T07:56:40.857Z,-5.50
2023-01-08T07:57:42.921Z,-5.50
2023-01-08T07:58:44.913Z,-5.40
2023-01-08T07:59:46.653Z,-5.40
2023-01-08T08:00:48.776Z,-5.40
2023-01-08T08:01:50.619Z,-5.50
2023-01-08T08:02:52.779Z,-5.40
2023-01-08T08:03:54.858Z,-5.50
2023-01-08T08:04:56.795Z,-5.50
2023-01-08T08:06:01.365Z,-5.40
2023-01-08T08:07:03.335Z,-5.40
2023-01-08T08:08:09.584Z,-5.40
2023-01-08T08:09:11.683Z,-5.40
2023-01-08T08:10:13.641Z,-5.40
2023-01-08T08:11:15.986Z,-5.40
2023-01-08T08:12:18.170Z,-5.40
2023-01-08T08:13:19.978Z,-5.30
2023-01-08T08:14:21.852Z,-5.40
2023-01-08T08:15:23.722Z,-5.30
2023-01-08T08:16:25.696Z,-5.30
2023-01-08T08:17:27.611Z,-5.30
2023-01-08T08:18:29.575Z,-5.30
2023-01-08T08:19:31.443Z,-5.30
2023-01-08T08:20:33.889Z,-5.30
2023-01-08T08:21:35.812Z,-5.30
2023-01-08T08:22:37.845Z,-5.30
2023-01-08T08:23:39.672Z,-5.30
2023-01-08T08:24:41.557Z,-5.30
2023-01-08T08:25:43.554Z,-5.30
2023-01-08T08:26:45.299Z,-5.30
2023-01-08T08:27:47.064Z,-5.20
2023-01-08T08:28:49.091Z,-5.20
2023-01-08T08:29:51.161Z,-5.20
2023-01-08T08:30:53.079Z,-5.20
2023-01-08T08:31:55.183Z,-5.20
2023-01-08T08:33:00.199Z,-5.20
2023-01-08T08:34:02.215Z,-5.20
2023-01-08T08:35:05.623Z,-5.20
2023-01-08T08:36:08.463Z,-5.20
2023-01-08T08:37:10.359Z,-5.20
2023-01-08T08:38:12.199Z,-5.20
2023-01-08T08:39:14.420Z,-5.20
2023-01-08T08:40:16.717Z,-5.10
2023-01-08T08:41:18.761Z,-5.20
2023-01-08T08:42:20.504Z,-5.10
2023-01-08T08:43:22.262Z,-5.10
2023-01-08T08:44:24.153Z,-5.10
2023-01-08T08:45:27.105Z,-5.10
2023-01-08T08:46:29.808Z,-5.10
2023-01-08T08:47:31.763Z,-5.10
2023-01-08T08:48:33.757Z,-5.10
2023-01-08T08:49:36.621Z,-5.10
2023-01-08T08:50:38.854Z,-5.10
2023-01-08T08:51:40.558Z,-5.10
2023-01-08T08:52:44.955Z,-5.10
2023-01-08T08:53:46.899Z,-5.10
2023-01-08T08:54:48.825Z,-5.10
2023-01-08T08:55:50.571Z,-5.10
2023-01-08T08:56:52.426Z,-5.10
2023-01-08T08:57:54.365Z,-5.10
2023-01-08T08:58:58.385Z,-5.00
2023-01-08T09:00:01.251Z,-5.00
2023-01-08T09:01:04.462Z,-5.00
2023-01-08T09:02:06.845Z,-5.00
2023-01-08T09:03:14.845Z,-5.00
2023-01-08T09:04:16.961Z,-5.00
2023-01-08T09:05:18.699Z,-5.00
2023-01-08T09:06:20.534Z,-5.00
2023-01-08T09:07:22.716Z,-5.00
2023-01-08T09:08:24.649Z,-5.00
2023-01-08T09:09:27.705Z,-5.00
2023-01-08T09:10:29.438Z,-5.00
2023-01-08T09:11:32.037Z,-5.00
2023-01-08T09:12:34.169Z,-4.90
2023-01-08T09:13:37.885Z,-4.90
2023-01-08T09:14:39.811Z,-5.00
2023-01-08T09:15:41.679Z,-4.90
2023-01-08T09:16:43.566Z,-4.90
2023-01-08T09:17:45.456Z,-4.90
2023-01-08T09:18:49.039Z,-4.90
2023-01-08T09:19:50.960Z,-4.90
2023-01-08T09:20:53.108Z,-4.90
2023-01-08T09:21:55.018Z,-4.90
2023-01-08T09:22:59.680Z,-4.80
2023-01-08T09:24:01.587Z,-4.90
2023-01-08T09:25:03.658Z,-4.80
2023-01-08T09:26:06.404Z,-4.80
2023-01-08T09:27:10.936Z,-4.80
2023-01-08T09:28:13.321Z,-4.80
2023-01-08T09:29:15.156Z,-4.80
2023-01-08T09:30:17.031Z,-4.80
2023-01-08T09:31:18.851Z,-4.80
2023-01-08T09:32:20.835Z,-4.70
2023-01-08T09:33:22.701Z,-4.70
2023-01-08T09:34:24.629Z,-4.70
2023-01-08T09:35:27.243Z,-4.70
2023-01-08T09:36:30.220Z,-4.70
2023-01-08T09:37:32.174Z,-4.70
2023-01-08T09:38:34.153Z,-4.70
2023-01-08T09:39:37.035Z,-4.70
2023-01-08T09:40:48.094Z,-4.70
2023-01-08T09:41:51.488Z,-4.60
2023-01-08T09:43:02.062Z,-4.70
2023-01-08T09:44:06.573Z,-4.60
2023-01-08T09:45:23.016Z,-4.60
2023-01-08T09:46:27.758Z,-4.60
2023-01-08T09:47:36.631Z,-4.50
2023-01-08T09:48:40.478Z,-4.50
2023-01-08T09:49:45.725Z,-4.50
2023-01-08T09:50:48.405Z,-4.50
2023-01-08T09:51:50.273Z,-4.40
2023-01-08T09:52:52.477Z,-4.40
2023-01-08T09:53:56.406Z,-4.40
2023-01-08T09:54:58.816Z,-4.40
2023-01-08T09:56:10.914Z,-4.30
2023-01-08T09:57:16.604Z,-4.30
2023-01-08T09:58:30.808Z,-4.30
2023-01-08T09:59:33.132Z,-4.30
2023-01-08T10:00:35.184Z,-4.30
2023-01-08T10:01:38.909Z,-4.30
2023-01-08T10:02:41.634Z,-4.30
2023-01-08T10:03:48.978Z,-4.30
2023-01-08T10:04:58.645Z,-4.30
2023-01-08T10:06:00.536Z,-4.30
2023-01-08T10:07:21.750Z,-4.30
2023-01-08T10:08:23.644Z,-4.30
2023-01-08T10:09:31.537Z,-4.30
2023-01-08T10:10:34.062Z,-4.20
2023-01-08T10:11:42.464Z,-4.30
2023-01-08T10:12:44.981Z,-4.20
2023-01-08T10:13:52.365Z,-4.20
2023-01-08T10:14:57.772Z,-4.20
2023-01-08T10:16:03.153Z,-4.20
2023-01-08T10:17:40.661Z,-4.20
2023-01-08T10:18:43.776Z,-4.20
2023-01-08T10:19:45.892Z,-4.20
2023-01-08T10:20:47.781Z,-4.20
2023-01-08T10:21:50.288Z,-4.20
2023-01-08T10:22:57.159Z,-4.20
2023-01-08T10:23:59.445Z,-4.20
2023-01-08T10:25:08.635Z,-4.20
2023-01-08T10:26:12.533Z,-4.10
2023-01-08T10:27:23.539Z,-4.00
2023-01-08T10:28:30.534Z,-3.90
2023-01-08T10:29:32.376Z,-3.90
2023-01-08T10:30:37.981Z,-3.90
2023-01-08T10:31:46.498Z,-3.90
2023-01-08T10:32:54.804Z,-3.80
2023-01-08T10:33:57.371Z,-3.70
2023-01-08T10:35:03.170Z,-3.70
2023-01-08T10:36:09.373Z,-3.70
2023-01-08T10:37:22.967Z,-3.70
2023-01-08T10:38:56.835Z,-3.70
2023-01-08T10:40:23.613Z,-3.70
2023-01-08T10:41:27.015Z,-3.70
2023-01-08T10:42:33.957Z,-3.80
2023-01-08T10:44:02.020Z,-3.80
2023-01-08T10:45:07.957Z,-3.80
2023-01-08T10:46:23.491Z,-3.80
2023-01-08T10:47:28.577Z,-3.80
2023-01-08T10:48:44.755Z,-3.80
2023-01-08T10:49:46.959Z,-3.80
2023-01-08T10:50:48.873Z,-3.80
2023-01-08T10:51:55.792Z,-3.80
2023-01-08T10:53:19.878Z,-3.80
2023-01-08T10:54:36.218Z,-3.80
2023-01-08T10:55:39.689Z,-3.80
2023-01-08T10:56:44.130Z,-3.80
2023-01-08T10:58:03.473Z,-3.80
2023-01-08T10:59:05.654Z,-3.70
2023-01-08T11:00:29.633Z,-3.70
2023-01-08T11:01:33.701Z,-3.70
2023-01-08T11:02:39.373Z,-3.70
2023-01-08T11:03:42.366Z,-3.70
2023-01-08T11:04:48.560Z,-3.70
2023-01-08T11:05:51.034Z,-3.70
2023-01-08T11:06:59.641Z,-3.70
2023-01-08T11:08:05.924Z,-3.70
2023-01-08T11:09:22.349Z,-3.70
2023-01-08T11:10:25.803Z,-3.70
2023-01-08T11:11:35.481Z,-3.60
2023-01-08T11:12:40.942Z,-3.60
2023-01-08T11:14:13.237Z,-3.60
2023-01-08T11:15:31.228Z,-3.60
2023-01-08T11:16:40.103Z,-3.60
2023-01-08T11:17:42.297Z,-3.60
2023-01-08T11:18:48.525Z,-3.60
2023-01-08T11:19:50.474Z,-3.60
2023-01-08T11:20:54.527Z,-3.60
2023-01-08T11:21:59.098Z,-3.50
2023-01-08T11:23:17.490Z,-3.60
2023-01-08T11:24:24.960Z,-3.50
2023-01-08T11:25:30.449Z,-3.60
2023-01-08T11:26:35.004Z,-3.50
2023-01-08T11:27:42.043Z,-3.60
2023-01-08T11:29:12.712Z,-3.50
2023-01-08T11:30:21.497Z,-3.60
2023-01-08T11:31:46.023Z,-3.60
2023-01-08T11:33:18.530Z,-3.60
2023-01-08T11:34:31.753Z,-3.50
2023-01-08T11:35:41.004Z,-3.50
2023-01-08T11:37:02.524Z,-3.50
2023-01-08T11:38:08.488Z,-3.50
2023-01-08T11:39:10.524Z,-3.40
2023-01-08T11:40:17.356Z,-3.40
2023-01-08T11:42:05.209Z,-3.40
2023-01-08T11:43:07.306Z,-3.40
2023-01-08T11:44:08.988Z,-3.40
2023-01-08T11:45:28.767Z,-3.40
2023-01-08T11:47:00.190Z,-3.40
2023-01-08T11:48:01.868Z,-3.40
2023-01-08T11:49:36.849Z,-3.40
2023-01-08T11:50:44.556Z,-3.40
2023-01-08T11:52:03.758Z,-3.40
2023-01-08T11:53:42.994Z,-3.30
2023-01-08T11:55:13.002Z,-3.30
2023-01-08T11:56:56.350Z,-3.30
2023-01-08T11:58:03.888Z,-3.30
2023-01-08T11:59:19.034Z,-3.20
2023-01-08T12:00:38.963Z,-3.20
2023-01-08T12:01:52.643Z,-3.20
2023-01-08T12:03:01.850Z,-3.20
2023-01-08T12:04:34.511Z,-3.10
2023-01-08T12:05:50.034Z,-3.10
2023-01-08T12:07:12.977Z,-3.10
2023-01-08T12:08:20.601Z,-3.10
2023-01-08T12:09:46.401Z,-3.10
2023-01-08T12:11:16.646Z,-3.10
2023-01-08T12:12:55.369Z,-3.10
2023-01-08T12:14:21.244Z,-3.10
2023-01-08T12:15:29.353Z,-3.10
2023-01-08T12:17:06.827Z,-3.10
2023-01-08T12:18:19.663Z,-3.10
2023-01-08T12:19:56.892Z,-3.10
2023-01-08T12:21:09.899Z,-3.10
2023-01-08T12:22:31.490Z,-3.10
2023-01-08T12:24:16.586Z,-3.10
2023-01-08T12:25:26.349Z,-3.10
2023-01-08T12:26:58.549Z,-3.10
2023-01-08T12:28:15.706Z,-3.10
2023-01-08T12:29:30.100Z,-3.10
2023-01-08T12:30:52.583Z,-3.10
2023-01-08T12:32:05.065Z,-3.10
2023-01-08T12:34:00.653Z,-3.00
2023-01-08T12:35:26.078Z,-3.00
2023-01-08T12:36:36.191Z,-3.10
2023-01-08T12:37:57.484Z,-3.00
2023-01-08T12:39:06.247Z,-3.10
2023-01-08T12:40:33.455Z,-3.10
2023-01-08T12:41:36.307Z,-3.10
2023-01-08T12:42:47.138Z,-3.00
2023-01-08T12:44:02.231Z,-3.00
2023-01-08T12:45:08.623Z,-3.10
2023-01-08T12:46:14.680Z,-3.00
2023-01-08T12:47:22.254Z,-3.10
2023-01-08T12:48:27.783Z,-3.00
2023-01-08T12:49:41.703Z,-3.00
2023-01-08T12:50:59.534Z,-3.00
2023-01-08T12:52:09.175Z,-3.00
2023-01-08T12:53:32.585Z,-3.00
2023-01-08T12:54:53.305Z,-3.00
2023-01-08T12:56:20.960Z,-3.00
2023-01-08T12:57:31.082Z,-2.90
2023-01-08T12:58:43.139Z,-2.90
2023-01-08T13:00:04.297Z,-3.00
2023-01-08T13:01:37.486Z,-2.90
2023-01-08T13:02:59.515Z,-2.90
2023-01-08T13:04:04.283Z,-2.90
2023-01-08T13:05:12.223Z,-2.90
2023-01-08T13:06:18.596Z,-2.90
2023-01-08T13:07:31.765Z,-2.90
2023-01-08T13:08:34.684Z,-2.90
2023-01-08T13:09:36.620Z,-2.90
2023-01-08T13:10:50.514Z,-2.80
2023-01-08T13:11:55.209Z,-2.80
2023-01-08T13:12:58.107Z,-2.80
2023-01-08T13:14:05.599Z,-2.80
2023-01-08T13:15:08.699Z,-2.80
2023-01-08T13:16:17.014Z,-2.80
2023-01-08T13:17:22.388Z,-2.80
2023-01-08T13:18:24.350Z,-2.80
2023-01-08T13:19:29.131Z,-2.80
2023-01-08T13:20:32.471Z,-2.80
2023-01-08T13:21:36.161Z,-2.80
2023-01-08T13:22:38.357Z,-2.80
2023-01-08T13:23:40.398Z,-2.80
2023-01-08T13:24:43.509Z,-2.80
2023-01-08T13:25:53.801Z,-2.80
2023-01-08T13:27:18.778Z,-2.80
2023-01-08T13:28:42.621Z,-2.80
2023-01-08T13:29:49.557Z,-2.80
2023-01-08T13:30:52.052Z,-2.80
2023-01-08T13:31:54.079Z,-2.80
2023-01-08T13:32:55.930Z,-2.80
2023-01-08T13:33:57.672Z,-2.80
2023-01-08T13:35:17.539Z,-2.80
2023-01-08T13:36:22.287Z,-2.70
2023-01-08T13:37:27.765Z,-2.80
2023-01-08T13:38:29.903Z,-2.70
2023-01-08T13:39:37.387Z,-2.80
2023-01-08T13:40:44.891Z,-2.70
2023-01-08T13:42:02.697Z,-2.70
2023-01-08T13:43:13.486Z,-2.70
2023-01-08T13:44:34.535Z,-2.70
2023-01-08T13:45:36.865Z,-2.70
2023-01-08T13:46:41.180Z,-2.70
2023-01-08T13:47:44.018Z,-2.70
2023-01-08T13:49:00.800Z,-2.70
2023-01-08T13:50:17.553Z,-2.70
2023-01-08T13:51:40.707Z,-2.70
2023-01-08T13:52:45.279Z,-2.70
2023-01-08T13:53:47.167Z,-2.80
2023-01-08T13:54:49.512Z,-2.70
2023-01-08T13:56:02.510Z,-2.70
2023-01-08T13:57:16.369Z,-2.70
2023-01-08T13:58:26.398Z,-2.70
2023-01-08T13:59:47.914Z,-2.70
2023-01-08T14:00:52.499Z,-2.70
2023-01-08T14:01:56.099Z,-2.70
2023-01-08T14:02:58.214Z,-2.70
2023-01-08T14:04:00.152Z,-2.70
2023-01-08T14:05:03.230Z,-2.70
2023-01-08T14:06:12.029Z,-2.70
2023-01-08T14:07:14.909Z,-2.70
2023-01-08T14:08:24.803Z,-2.70
2023-01-08T14:09:26.541Z,-2.70
2023-01-08T14:10:30.188Z,-2.70
2023-01-08T14:11:46.701Z,-2.70